createdAt,value
2022-09-12T00:00:11.849Z,13.90
2022-09-12T00:01:12.157Z,13.20
2022-09-12T00:02:12.476Z,13.20
2022-09-12T00:03:12.792Z,13.60
2022-09-12T00:04:13.125Z,12.90
2022-09-12T00:05:13.432Z,13.00
2022-09-12T00:06:13.739Z,13.20
2022-09-12T00:07:14.054Z,13.10
2022-09-12T00:08:14.349Z,12.60
2022-09-12T00:09:14.703Z,13.10
2022-09-12T00:10:14.997Z,12.90
2022-09-12T00:11:15.323Z,12.80
2022-09-12T00:12:15.630Z,12.90
2022-09-12T00:13:16.327Z,13.00
2022-09-12T00:14:16.181Z,13.10
2022-09-12T00:15:16.587Z,12.80
2022-09-12T00:16:16.850Z,12.50
2022-09-12T00:17:17.011Z,12.40
2022-09-12T00:18:17.532Z,12.80
2022-09-12T00:19:17.647Z,13.20
2022-09-12T00:20:17.978Z,12.70
2022-09-12T00:21:18.370Z,12.60
2022-09-12T00:22:18.561Z,12.90
2022-09-12T00:23:18.888Z,12.10
2022-09-12T00:24:19.215Z,12.10
2022-09-12T00:25:19.526Z,12.00
2022-09-12T00:26:19.841Z,12.50
2022-09-12T00:27:20.142Z,12.30
2022-09-12T00:28:20.468Z,12.10
2022-09-12T00:29:20.782Z,12.50
2022-09-12T00:30:21.074Z,12.10
2022-09-12T00:31:21.427Z,12.50
2022-09-12T00:32:21.735Z,12.10
2022-09-12T00:33:22.017Z,12.70
2022-09-12T00:34:22.372Z,12.80
2022-09-12T00:35:22.646Z,12.50
2022-09-12T00:36:22.957Z,12.80
2022-09-12T00:37:23.281Z,12.60
2022-09-12T00:38:23.621Z,13.00
2022-09-12T00:39:23.958Z,12.80
2022-09-12T00:40:24.269Z,13.20
2022-09-12T00:41:24.591Z,12.50
2022-09-12T00:42:24.859Z,13.20
2022-09-12T00:43:25.188Z,12.90
2022-09-12T00:44:25.541Z,12.90
2022-09-12T00:45:25.844Z,12.70
2022-09-12T00:46:26.155Z,13.00
2022-09-12T00:47:26.475Z,12.80
2022-09-12T00:48:26.757Z,13.10
2022-09-12T00:49:27.131Z,13.60
2022-09-12T00:50:27.390Z,13.10
2022-09-12T00:51:27.754Z,12.90
2022-09-12T00:52:28.083Z,13.20
2022-09-12T00:53:28.381Z,12.80
2022-09-12T00:54:28.833Z,13.30
2022-09-12T00:55:29.066Z,13.10
2022-09-12T00:56:29.262Z,13.50
2022-09-12T00:57:29.585Z,13.10
2022-09-12T00:58:30.289Z,12.80
2022-09-12T00:59:30.189Z,13.60
2022-09-12T01:00:30.537Z,13.40
2022-09-12T01:01:32.745Z,13.60
2022-09-12T01:02:30.993Z,14.10
2022-09-12T01:03:31.310Z,14.40
2022-09-12T01:04:31.656Z,14.40
2022-09-12T01:05:31.944Z,14.00
2022-09-12T01:06:32.257Z,13.70
2022-09-12T01:07:35.789Z,13.60
2022-09-12T01:08:33.918Z,13.90
2022-09-12T01:09:33.120Z,14.50
2022-09-12T01:10:33.400Z,14.70
2022-09-12T01:11:33.735Z,14.40
2022-09-12T01:12:34.069Z,13.80
2022-09-12T01:13:34.422Z,14.10
2022-09-12T01:14:34.612Z,13.80
2022-09-12T01:15:34.904Z,13.60
2022-09-12T01:16:36.073Z,13.10
2022-09-12T01:17:35.585Z,14.10
2022-09-12T01:18:35.864Z,13.80
2022-09-12T01:19:36.209Z,13.50
2022-09-12T01:20:36.547Z,14.20
2022-09-12T01:21:36.861Z,13.60
2022-09-12T01:22:37.219Z,13.70
2022-09-12T01:23:37.461Z,13.50
2022-09-12T01:24:37.899Z,13.70
2022-09-12T01:25:38.031Z,13.80
2022-09-12T01:26:38.397Z,14.30
2022-09-12T01:27:38.701Z,14.10
2022-09-12T01:28:39.088Z,14.10
2022-09-12T01:29:39.329Z,13.90
2022-09-12T01:30:39.639Z,13.80
2022-09-12T01:31:39.970Z,14.30
2022-09-12T01:32:40.282Z,13.70
2022-09-12T01:33:40.592Z,14.40
2022-09-12T01:34:40.930Z,14.40
2022-09-12T01:35:41.248Z,14.00
2022-09-12T01:36:41.608Z,13.90
2022-09-12T01:37:41.821Z,14.20
2022-09-12T01:38:42.498Z,13.70
2022-09-12T01:39:42.389Z,14.10
2022-09-12T01:40:42.668Z,14.40
2022-09-12T01:41:43.030Z,14.30
2022-09-12T01:42:43.322Z,14.10
2022-09-12T01:43:43.681Z,14.50
2022-09-12T01:44:43.828Z,14.10
2022-09-12T01:45:44.187Z,14.60
2022-09-12T01:46:44.494Z,14.00
2022-09-12T01:47:44.801Z,14.00
2022-09-12T01:48:45.309Z,13.90
2022-09-12T01:49:45.470Z,14.20
2022-09-12T01:50:45.770Z,14.00
2022-09-12T01:51:46.172Z,14.20
2022-09-12T01:52:46.358Z,14.60
2022-09-12T01:53:46.670Z,14.10
2022-09-12T01:54:46.998Z,14.40
2022-09-12T01:55:47.271Z,13.90
2022-09-12T01:56:47.615Z,14.10
2022-09-12T01:57:47.918Z,14.40
2022-09-12T01:58:48.274Z,13.90
2022-09-12T01:59:48.467Z,13.90
2022-09-12T02:00:48.883Z,14.00
2022-09-12T02:01:49.144Z,14.00
2022-09-12T02:02:49.317Z,13.70
2022-09-12T02:03:49.616Z,13.10
2022-09-12T02:04:49.895Z,12.90
2022-09-12T02:05:50.246Z,13.10
2022-09-12T02:06:50.548Z,13.50
2022-09-12T02:07:50.981Z,13.10
2022-09-12T02:08:51.146Z,13.10
2022-09-12T02:09:51.467Z,12.70
2022-09-12T02:10:51.788Z,12.80
2022-09-12T02:11:52.181Z,13.00
2022-09-12T02:12:52.342Z,13.10
2022-09-12T02:13:52.661Z,13.30
2022-09-12T02:14:52.880Z,13.20
2022-09-12T02:15:53.293Z,13.90
2022-09-12T02:16:53.550Z,13.70
2022-09-12T02:17:53.851Z,13.40
2022-09-12T02:18:54.210Z,12.90
2022-09-12T02:19:54.552Z,13.50
2022-09-12T02:20:54.856Z,13.50
2022-09-12T02:21:55.157Z,13.20
2022-09-12T02:22:55.380Z,13.60
2022-09-12T02:23:55.690Z,13.50
2022-09-12T02:24:56.008Z,13.20
2022-09-12T02:25:56.321Z,13.80
2022-09-12T02:26:56.553Z,14.10
2022-09-12T02:27:56.827Z,14.20
2022-09-12T02:28:57.146Z,14.10
2022-09-12T02:29:57.450Z,14.20
2022-09-12T02:30:57.841Z,14.50
2022-09-12T02:31:58.011Z,15.20
2022-09-12T02:32:58.359Z,14.50
2022-09-12T02:33:58.703Z,15.30
2022-09-12T02:34:58.974Z,15.60
2022-09-12T02:35:59.331Z,16.30
2022-09-12T02:36:59.666Z,16.30
2022-09-12T02:37:59.879Z,16.20
2022-09-12T02:39:00.188Z,16.40
2022-09-12T02:40:00.534Z,16.90
2022-09-12T02:41:00.751Z,18.00
2022-09-12T02:42:01.053Z,19.50
2022-09-12T02:43:01.429Z,19.10
2022-09-12T02:44:01.608Z,19.40
2022-09-12T02:45:01.868Z,20.80
2022-09-12T02:46:02.241Z,21.00
2022-09-12T02:47:02.536Z,21.90
2022-09-12T02:48:02.892Z,21.60
2022-09-12T02:49:03.209Z,22.30
2022-09-12T02:50:04.352Z,22.00
2022-09-12T02:51:03.753Z,20.50
2022-09-12T02:52:04.940Z,19.90
2022-09-12T02:53:04.476Z,20.30
2022-09-12T02:54:04.814Z,20.80
2022-09-12T02:55:05.037Z,21.50
2022-09-12T02:56:05.302Z,21.00
2022-09-12T02:57:05.515Z,21.60
2022-09-12T02:58:05.784Z,21.30
2022-09-12T02:59:06.978Z,20.90
2022-09-12T03:00:06.457Z,21.70
2022-09-12T03:01:06.842Z,21.00
2022-09-12T03:02:07.066Z,22.10
2022-09-12T03:03:07.311Z,22.50
2022-09-12T03:04:07.719Z,22.60
2022-09-12T03:05:07.958Z,22.40
2022-09-12T03:06:08.357Z,22.90
2022-09-12T03:07:08.548Z,23.00
2022-09-12T03:08:08.864Z,22.70
2022-09-12T03:09:09.202Z,22.40
2022-09-12T03:10:09.387Z,22.40
2022-09-12T03:11:09.681Z,21.90
2022-09-12T03:12:10.837Z,21.80
2022-09-12T03:13:10.265Z,20.60
2022-09-12T03:14:10.580Z,20.50
2022-09-12T03:15:10.834Z,20.90
2022-09-12T03:16:11.271Z,19.80
2022-09-12T03:17:11.519Z,20.00
2022-09-12T03:18:11.807Z,20.20
2022-09-12T03:19:12.163Z,19.30
2022-09-12T03:20:12.487Z,19.60
2022-09-12T03:21:12.819Z,19.00
2022-09-12T03:22:13.135Z,20.30
2022-09-12T03:23:13.421Z,19.40
2022-09-12T03:24:13.794Z,19.60
2022-09-12T03:25:14.092Z,19.90
2022-09-12T03:26:14.386Z,20.30
2022-09-12T03:27:14.673Z,20.20
2022-09-12T03:28:14.984Z,20.20
2022-09-12T03:29:15.219Z,20.10
2022-09-12T03:30:15.551Z,19.00
2022-09-12T03:31:15.877Z,18.80
2022-09-12T03:32:16.140Z,19.20
2022-09-12T03:33:16.460Z,19.20
2022-09-12T03:34:16.788Z,19.40
2022-09-12T03:35:20.888Z,20.10
2022-09-12T03:36:18.340Z,19.40
2022-09-12T03:37:17.677Z,19.30
2022-09-12T03:38:17.988Z,20.00
2022-09-12T03:39:18.262Z,20.60
2022-09-12T03:40:18.664Z,20.20
2022-09-12T03:41:18.854Z,21.10
2022-09-12T03:42:19.122Z,20.70
2022-09-12T03:43:19.383Z,22.20
2022-09-12T03:44:19.752Z,21.40
2022-09-12T03:45:20.032Z,22.50
2022-09-12T03:46:20.329Z,22.50
2022-09-12T03:47:20.578Z,20.00
2022-09-12T03:48:20.820Z,19.70
2022-09-12T03:49:21.149Z,18.70
2022-09-12T03:50:21.402Z,19.00
2022-09-12T03:51:21.731Z,18.10
2022-09-12T03:52:22.046Z,17.90
2022-09-12T03:53:22.373Z,16.70
2022-09-12T03:54:22.684Z,16.00
2022-09-12T03:55:22.952Z,16.70
2022-09-12T03:56:23.259Z,15.60
2022-09-12T03:57:23.540Z,16.40
2022-09-12T03:58:23.835Z,17.20
2022-09-12T03:59:24.315Z,16.60
2022-09-12T04:00:24.447Z,16.40
2022-09-12T04:01:24.714Z,16.70
2022-09-12T04:02:25.039Z,16.50
2022-09-12T04:03:25.325Z,16.80
2022-09-12T04:04:25.738Z,16.50
2022-09-12T04:05:25.969Z,15.90
2022-09-12T04:06:26.307Z,16.10
2022-09-12T04:07:26.584Z,15.90
2022-09-12T04:08:26.877Z,16.30
2022-09-12T04:09:27.160Z,16.30
2022-09-12T04:10:27.408Z,16.30
2022-09-12T04:11:27.768Z,15.90
2022-09-12T04:12:28.047Z,15.50
2022-09-12T04:13:28.332Z,14.90
2022-09-12T04:14:28.634Z,14.10
2022-09-12T04:15:28.952Z,13.00
2022-09-12T04:16:29.283Z,12.80
2022-09-12T04:17:29.581Z,12.00
2022-09-12T04:18:29.887Z,12.40
2022-09-12T04:19:30.299Z,11.80
2022-09-12T04:20:30.600Z,11.60
2022-09-12T04:21:30.914Z,11.90
2022-09-12T04:22:31.174Z,11.60
2022-09-12T04:23:31.505Z,11.60
2022-09-12T04:24:31.782Z,11.70
2022-09-12T04:25:32.099Z,11.90
2022-09-12T04:26:32.409Z,11.60
2022-09-12T04:27:32.635Z,11.40
2022-09-12T04:28:32.939Z,11.60
2022-09-12T04:29:33.170Z,11.50
2022-09-12T04:30:33.565Z,11.60
2022-09-12T04:31:33.948Z,11.50
2022-09-12T04:32:34.088Z,11.40
2022-09-12T04:33:34.366Z,11.60
2022-09-12T04:34:34.642Z,11.40
2022-09-12T04:35:34.977Z,11.60
2022-09-12T04:36:35.362Z,11.40
2022-09-12T04:37:35.569Z,11.80
2022-09-12T04:38:35.784Z,11.90
2022-09-12T04:39:36.158Z,11.80
2022-09-12T04:40:36.403Z,11.50
2022-09-12T04:41:36.627Z,11.40
2022-09-12T04:42:36.853Z,11.80
2022-09-12T04:43:37.265Z,11.30
2022-09-12T04:44:37.525Z,11.80
2022-09-12T04:45:37.853Z,12.30
2022-09-12T04:46:38.119Z,11.90
2022-09-12T04:47:38.308Z,12.20
2022-09-12T04:48:38.593Z,12.50
2022-09-12T04:49:38.837Z,12.30
2022-09-12T04:50:39.989Z,12.50
2022-09-12T04:51:39.396Z,12.90
2022-09-12T04:52:39.679Z,12.60
2022-09-12T04:53:39.926Z,13.30
2022-09-12T04:54:40.153Z,13.30
2022-09-12T04:55:40.432Z,12.90
2022-09-12T04:56:40.736Z,12.80
2022-09-12T04:57:40.956Z,13.20
2022-09-12T04:58:41.192Z,13.10
2022-09-12T04:59:41.436Z,13.00
2022-09-12T05:00:41.686Z,13.50
2022-09-12T05:01:42.015Z,13.70
2022-09-12T05:02:42.263Z,13.60
2022-09-12T05:03:42.568Z,14.10
2022-09-12T05:04:42.779Z,16.40
2022-09-12T05:05:43.014Z,13.30
2022-09-12T05:06:43.355Z,13.20
2022-09-12T05:07:43.588Z,13.00
2022-09-12T05:08:43.913Z,13.10
2022-09-12T05:09:44.241Z,13.20
2022-09-12T05:10:44.434Z,13.60
2022-09-12T05:12:46.031Z,13.20
2022-09-12T05:13:45.297Z,13.20
2022-09-12T05:14:45.658Z,12.50
2022-09-12T05:15:45.857Z,13.20
2022-09-12T05:16:49.443Z,12.90
2022-09-12T05:17:46.438Z,13.40
2022-09-12T05:18:46.803Z,13.50
2022-09-12T05:19:46.928Z,13.30
2022-09-12T05:20:47.191Z,13.30
2022-09-12T05:21:47.481Z,14.20
2022-09-12T05:22:47.737Z,13.60
2022-09-12T05:23:48.040Z,13.60
2022-09-12T05:24:50.561Z,13.40
2022-09-12T05:25:48.542Z,13.30
2022-09-12T05:26:48.812Z,13.50
2022-09-12T05:27:50.623Z,13.90
2022-09-12T05:28:49.383Z,13.60
2022-09-12T05:29:49.705Z,14.40
2022-09-12T05:30:49.971Z,14.50
2022-09-12T05:31:50.247Z,15.00
2022-09-12T05:32:50.534Z,14.60
2022-09-12T05:33:50.772Z,14.80
2022-09-12T05:34:51.070Z,15.10
2022-09-12T05:35:51.340Z,15.10
2022-09-12T05:36:51.613Z,15.40
2022-09-12T05:37:51.885Z,14.80
2022-09-12T05:38:52.282Z,15.20
2022-09-12T05:39:52.509Z,14.20
2022-09-12T05:40:52.632Z,15.60
2022-09-12T05:41:52.942Z,14.30
2022-09-12T05:42:53.185Z,16.30
2022-09-12T05:43:53.457Z,15.40
2022-09-12T05:44:53.738Z,15.10
2022-09-12T05:45:54.058Z,15.20
2022-09-12T05:46:54.347Z,14.80
2022-09-12T05:47:54.586Z,15.20
2022-09-12T05:48:56.302Z,15.20
2022-09-12T05:49:55.131Z,14.90
2022-09-12T05:50:55.445Z,14.40
2022-09-12T05:51:55.725Z,15.60
2022-09-12T05:52:56.026Z,15.80
2022-09-12T05:53:56.295Z,15.70
2022-09-12T05:54:56.570Z,15.20
2022-09-12T05:55:56.913Z,15.20
2022-09-12T05:56:57.152Z,15.30
2022-09-12T05:57:57.430Z,15.20
2022-09-12T05:58:57.700Z,14.80
2022-09-12T05:59:58.043Z,14.70
2022-09-12T06:00:58.289Z,14.50
2022-09-12T06:01:58.576Z,14.60
2022-09-12T06:02:58.855Z,15.10
2022-09-12T06:03:59.073Z,14.70
2022-09-12T06:04:59.386Z,14.10
2022-09-12T06:05:59.649Z,14.60
2022-09-12T06:06:59.905Z,14.30
2022-09-12T06:08:00.170Z,14.80
2022-09-12T06:09:00.806Z,14.90
2022-09-12T06:10:00.794Z,14.00
2022-09-12T06:11:02.334Z,13.90
2022-09-12T06:12:01.372Z,13.70
2022-09-12T06:13:01.639Z,14.10
2022-09-12T06:14:01.875Z,13.50
2022-09-12T06:15:02.136Z,14.10
2022-09-12T06:16:02.403Z,13.80
2022-09-12T06:17:02.716Z,14.90
2022-09-12T06:18:03.200Z,15.10
2022-09-12T06:19:03.346Z,17.00
2022-09-12T06:20:03.593Z,17.10
2022-09-12T06:21:03.823Z,17.80
2022-09-12T06:22:04.089Z,17.50
2022-09-12T06:23:04.316Z,17.30
2022-09-12T06:24:04.615Z,17.30
2022-09-12T06:25:04.938Z,17.40
2022-09-12T06:26:05.120Z,17.50
2022-09-12T06:27:05.401Z,17.00
2022-09-12T06:28:05.673Z,17.30
2022-09-12T06:29:05.959Z,18.50
2022-09-12T06:30:06.221Z,18.60
2022-09-12T06:31:06.533Z,18.40
2022-09-12T06:32:06.803Z,18.60
2022-09-12T06:33:07.081Z,18.80
2022-09-12T06:34:07.310Z,18.20
2022-09-12T06:35:07.650Z,19.30
2022-09-12T06:36:12.033Z,20.00
2022-09-12T06:37:08.668Z,20.20
2022-09-12T06:38:08.769Z,20.50
2022-09-12T06:39:08.733Z,20.70
2022-09-12T06:40:09.099Z,20.10
2022-09-12T06:41:09.305Z,20.60
2022-09-12T06:42:09.542Z,19.60
2022-09-12T06:43:09.849Z,19.30
2022-09-12T06:44:10.151Z,20.30
2022-09-12T06:45:10.414Z,21.50
2022-09-12T06:46:10.806Z,22.40
2022-09-12T06:47:11.423Z,22.40
2022-09-12T06:48:11.301Z,23.00
2022-09-12T06:49:11.538Z,23.30
2022-09-12T06:50:11.793Z,21.60
2022-09-12T06:51:12.057Z,22.10
2022-09-12T06:52:12.375Z,22.20
2022-09-12T06:53:12.627Z,21.50
2022-09-12T06:54:12.925Z,21.70
2022-09-12T06:55:16.249Z,21.60
2022-09-12T06:56:14.460Z,22.10
2022-09-12T06:57:13.903Z,21.90
2022-09-12T06:58:14.045Z,22.30
2022-09-12T06:59:14.315Z,22.40
2022-09-12T07:00:14.591Z,22.60
2022-09-12T07:01:14.995Z,21.60
2022-09-12T07:02:15.308Z,21.60
2022-09-12T07:03:15.524Z,23.80
2022-09-12T07:04:15.798Z,22.20
2022-09-12T07:05:16.125Z,22.50
2022-09-12T07:06:16.423Z,20.60
2022-09-12T07:07:16.675Z,20.10
2022-09-12T07:08:16.958Z,19.20
2022-09-12T07:09:17.280Z,18.80
2022-09-12T07:10:22.083Z,19.40
2022-09-12T07:11:17.839Z,19.80
2022-09-12T07:12:18.181Z,20.70
2022-09-12T07:13:18.454Z,19.70
2022-09-12T07:14:18.733Z,19.70
2022-09-12T07:15:18.996Z,19.50
2022-09-12T07:16:20.111Z,20.00
2022-09-12T07:17:19.572Z,19.90
2022-09-12T07:18:19.858Z,19.70
2022-09-12T07:19:20.125Z,19.90
2022-09-12T07:20:20.423Z,19.20
2022-09-12T07:21:20.721Z,19.00
2022-09-12T07:22:21.007Z,19.70
2022-09-12T07:23:21.272Z,20.50
2022-09-12T07:24:21.547Z,20.30
2022-09-12T07:25:21.858Z,18.80
2022-09-12T07:26:22.122Z,19.40
2022-09-12T07:27:22.451Z,18.70
2022-09-12T07:28:22.803Z,18.90
2022-09-12T07:29:36.446Z,19.70
2022-09-12T07:30:24.355Z,19.80
2022-09-12T07:31:23.656Z,18.80
2022-09-12T07:32:23.872Z,18.90
2022-09-12T07:33:24.155Z,19.30
2022-09-12T07:34:24.431Z,20.40
2022-09-12T07:35:24.703Z,19.80
2022-09-12T07:36:25.021Z,21.60
2022-09-12T07:37:25.280Z,20.70
2022-09-12T07:38:25.556Z,20.50
2022-09-12T07:39:25.856Z,20.30
2022-09-12T07:40:26.243Z,18.60
2022-09-12T07:41:26.484Z,20.10
2022-09-12T07:42:26.786Z,19.00
2022-09-12T07:43:27.130Z,19.40
2022-09-12T07:44:27.413Z,18.50
2022-09-12T07:45:27.682Z,18.50
2022-09-12T07:46:27.943Z,19.10
2022-09-12T07:47:28.221Z,19.30
2022-09-12T07:48:28.626Z,18.90
2022-09-12T07:49:28.878Z,17.50
2022-09-12T07:50:29.139Z,16.90
2022-09-12T07:51:29.379Z,17.50
2022-09-12T07:52:29.627Z,18.10
2022-09-12T07:53:29.953Z,17.20
2022-09-12T07:54:30.227Z,16.70
2022-09-12T07:55:30.493Z,17.50
2022-09-12T07:56:34.617Z,17.00
2022-09-12T07:57:32.098Z,17.50
2022-09-12T07:58:31.267Z,17.40
2022-09-12T07:59:51.425Z,16.80
2022-09-12T08:00:32.858Z,17.20
2022-09-12T08:01:32.169Z,20.40
2022-09-12T08:02:32.456Z,16.70
2022-09-12T08:03:32.693Z,17.00
2022-09-12T08:04:33.063Z,16.60
2022-09-12T08:05:33.281Z,17.30
2022-09-12T08:06:33.542Z,17.00
2022-09-12T08:07:33.912Z,16.40
2022-09-12T08:08:34.154Z,16.70
2022-09-12T08:09:34.425Z,16.50
2022-09-12T08:10:34.730Z,16.10
2022-09-12T08:11:35.301Z,16.00
2022-09-12T08:12:35.318Z,16.00
2022-09-12T08:13:35.529Z,15.70
2022-09-12T08:14:35.739Z,16.00
2022-09-12T08:15:36.080Z,15.20
2022-09-12T08:16:36.392Z,16.00
2022-09-12T08:17:36.569Z,15.10
2022-09-12T08:18:36.883Z,15.10
2022-09-12T08:19:37.151Z,15.00
2022-09-12T08:20:37.435Z,15.20
2022-09-12T08:21:37.759Z,15.70
2022-09-12T08:22:37.997Z,15.00
2022-09-12T08:23:38.238Z,15.10
2022-09-12T08:24:38.540Z,15.00
2022-09-12T08:25:38.837Z,15.30
2022-09-12T08:26:39.121Z,15.20
2022-09-12T08:27:39.393Z,15.80
2022-09-12T08:28:40.017Z,15.10
2022-09-12T08:29:39.952Z,13.90
2022-09-12T08:30:40.309Z,14.90
2022-09-12T08:31:40.939Z,14.60
2022-09-12T08:32:40.814Z,15.10
2022-09-12T08:33:41.078Z,15.10
2022-09-12T08:34:41.487Z,15.00
2022-09-12T08:35:41.688Z,15.50
2022-09-12T08:36:41.979Z,14.70
2022-09-12T08:37:42.242Z,14.40
2022-09-12T08:38:42.639Z,13.80
2022-09-12T08:39:42.928Z,14.50
2022-09-12T08:40:43.135Z,14.40
2022-09-12T08:41:43.435Z,14.30
2022-09-12T08:42:43.744Z,14.10
2022-09-12T08:43:44.067Z,13.70
2022-09-12T08:44:44.301Z,14.70
2022-09-12T08:45:44.921Z,14.00
2022-09-12T08:46:44.837Z,17.50
2022-09-12T08:47:45.108Z,13.50
2022-09-12T08:48:45.375Z,13.80
2022-09-12T08:49:45.631Z,13.40
2022-09-12T08:50:49.865Z,14.00
2022-09-12T08:51:46.216Z,14.40
2022-09-12T08:52:46.591Z,15.40
2022-09-12T08:53:46.902Z,14.60
2022-09-12T08:54:47.025Z,14.70
2022-09-12T08:55:47.300Z,14.60
2022-09-12T08:56:47.657Z,14.30
2022-09-12T08:57:47.930Z,13.90
2022-09-12T08:58:48.167Z,14.50
2022-09-12T08:59:48.452Z,14.60
2022-09-12T09:00:48.704Z,14.40
2022-09-12T09:01:48.989Z,14.50
2022-09-12T09:02:49.459Z,14.60
2022-09-12T09:03:49.574Z,14.30
2022-09-12T09:04:49.897Z,14.20
2022-09-12T09:05:50.292Z,15.90
2022-09-12T09:06:50.502Z,15.50
2022-09-12T09:07:50.747Z,15.60
2022-09-12T09:08:51.066Z,16.20
2022-09-12T09:09:51.361Z,14.90
2022-09-12T09:10:51.604Z,15.80
2022-09-12T09:11:51.873Z,17.60
2022-09-12T09:12:52.135Z,17.90
2022-09-12T09:13:52.423Z,15.00
2022-09-12T09:14:52.766Z,15.00
2022-09-12T09:15:53.003Z,14.80
2022-09-12T09:16:53.244Z,13.80
2022-09-12T09:17:53.538Z,15.20
2022-09-12T09:18:53.806Z,13.00
2022-09-12T09:19:54.122Z,13.70
2022-09-12T09:20:54.508Z,14.10
2022-09-12T09:21:54.663Z,13.80
2022-09-12T09:22:54.963Z,11.10
2022-09-12T09:23:55.218Z,12.20
2022-09-12T09:24:55.657Z,13.30
2022-09-12T09:25:55.841Z,13.50
2022-09-12T09:26:56.085Z,13.00
2022-09-12T09:27:56.364Z,12.10
2022-09-12T09:28:56.655Z,11.20
2022-09-12T09:29:56.931Z,10.90
2022-09-12T09:30:57.578Z,10.30
2022-09-12T09:31:57.543Z,9.30
2022-09-12T09:32:57.966Z,11.50
2022-09-12T09:33:58.127Z,9.40
2022-09-12T09:34:58.404Z,8.90
2022-09-12T09:35:58.684Z,7.90
2022-09-12T09:36:58.977Z,6.80
2022-09-12T09:37:59.210Z,7.10
2022-09-12T09:38:59.528Z,7.30
2022-09-12T09:40:00.010Z,7.40
2022-09-12T09:41:00.045Z,7.60
2022-09-12T09:42:00.349Z,7.70
2022-09-12T09:43:00.590Z,7.20
2022-09-12T09:44:00.911Z,7.30
2022-09-12T09:45:01.181Z,7.40
2022-09-12T09:46:01.462Z,8.20
2022-09-12T09:47:01.758Z,8.10
2022-09-12T09:48:01.982Z,8.10
2022-09-12T09:49:02.276Z,8.00
2022-09-12T09:50:02.567Z,7.20
2022-09-12T09:51:02.846Z,8.10
2022-09-12T09:52:03.084Z,7.80
2022-09-12T09:53:03.398Z,7.20
2022-09-12T09:54:03.695Z,7.10
2022-09-12T09:55:03.952Z,7.90
2022-09-12T09:56:04.273Z,7.90
2022-09-12T09:57:04.487Z,7.60
2022-09-12T09:58:04.736Z,8.30
2022-09-12T09:59:05.026Z,7.70
2022-09-12T10:00:05.287Z,7.20
2022-09-12T10:01:05.708Z,7.30
2022-09-12T10:02:05.941Z,7.20
2022-09-12T10:03:08.278Z,7.50
2022-09-12T10:04:07.495Z,7.50
2022-09-12T10:05:06.765Z,7.50
2022-09-12T10:06:06.969Z,7.70
2022-09-12T10:07:07.429Z,8.80
2022-09-12T10:08:07.469Z,7.40
2022-09-12T10:09:07.754Z,7.10
2022-09-12T10:10:07.995Z,6.40
2022-09-12T10:11:08.237Z,7.00
2022-09-12T10:12:08.515Z,6.70
2022-09-12T10:13:08.781Z,6.60
2022-09-12T10:14:09.028Z,6.50
2022-09-12T10:15:09.296Z,7.90
2022-09-12T10:16:09.597Z,7.30
2022-09-12T10:17:09.838Z,7.60
2022-09-12T10:18:10.124Z,6.90
2022-09-12T10:19:10.395Z,6.70
2022-09-12T10:20:20.872Z,6.50
2022-09-12T10:21:11.827Z,6.30
2022-09-12T10:22:11.134Z,6.90
2022-09-12T10:23:11.462Z,6.70
2022-09-12T10:24:11.765Z,6.80
2022-09-12T10:25:11.995Z,6.50
2022-09-12T10:26:12.300Z,6.80
2022-09-12T10:27:12.551Z,6.50
2022-09-12T10:28:12.815Z,8.00
2022-09-12T10:29:13.088Z,5.30
2022-09-12T10:30:13.380Z,5.70
2022-09-12T10:31:13.771Z,5.50
2022-09-12T10:32:13.884Z,5.00
2022-09-12T10:33:14.127Z,5.00
2022-09-12T10:34:14.503Z,4.30
2022-09-12T10:35:14.732Z,4.50
2022-09-12T10:36:15.003Z,4.90
2022-09-12T10:37:15.329Z,4.40
2022-09-12T10:38:15.568Z,4.10
2022-09-12T10:39:15.827Z,3.90
2022-09-12T10:40:16.193Z,4.10
2022-09-12T10:41:16.409Z,5.40
2022-09-12T10:42:21.536Z,3.90
2022-09-12T10:43:17.902Z,4.40
2022-09-12T10:44:17.184Z,4.00
2022-09-12T10:45:17.545Z,3.90
2022-09-12T10:46:18.025Z,4.00
2022-09-12T10:47:18.170Z,4.10
2022-09-12T10:48:18.413Z,3.80
2022-09-12T10:49:18.672Z,3.80
2022-09-12T10:50:22.815Z,4.40
2022-09-12T10:51:19.254Z,3.90
2022-09-12T10:52:19.486Z,4.30
2022-09-12T10:53:19.767Z,4.60
2022-09-12T10:54:20.075Z,4.10
2022-09-12T10:55:20.306Z,4.00
2022-09-12T10:56:20.536Z,4.70
2022-09-12T10:57:20.869Z,3.90
2022-09-12T10:58:21.114Z,3.70
2022-09-12T10:59:21.373Z,3.40
2022-09-12T11:00:21.614Z,3.30
2022-09-12T11:01:21.900Z,3.20
2022-09-12T11:02:22.208Z,3.00
2022-09-12T11:03:22.418Z,3.40
2022-09-12T11:04:23.165Z,2.60
2022-09-12T11:05:23.018Z,2.90
2022-09-12T11:06:23.199Z,4.10
2022-09-12T11:07:23.999Z,3.90
2022-09-12T11:08:23.944Z,3.10
2022-09-12T11:09:24.138Z,2.50
2022-09-12T11:10:24.416Z,2.60
2022-09-12T11:11:24.827Z,2.50
2022-09-12T11:12:25.059Z,2.70
2022-09-12T11:13:25.324Z,2.70
2022-09-12T11:14:25.636Z,2.80
2022-09-12T11:15:25.896Z,2.90
2022-09-12T11:16:26.122Z,2.70
2022-09-12T11:17:26.941Z,3.30
2022-09-12T11:18:26.740Z,2.50
2022-09-12T11:19:27.032Z,2.60
2022-09-12T11:20:27.263Z,2.60
2022-09-12T11:21:27.630Z,2.30
2022-09-12T11:22:31.722Z,2.20
2022-09-12T11:23:28.143Z,2.40
2022-09-12T11:24:28.377Z,2.20
2022-09-12T11:25:28.622Z,2.60
2022-09-12T11:26:28.855Z,2.30
2022-09-12T11:27:29.131Z,2.40
2022-09-12T11:28:29.393Z,2.40
2022-09-12T11:29:29.714Z,2.40
2022-09-12T11:30:30.066Z,2.70
2022-09-12T11:31:30.311Z,2.20
2022-09-12T11:32:30.550Z,2.20
2022-09-12T11:33:30.774Z,2.30
2022-09-12T11:34:31.008Z,2.10
2022-09-12T11:35:31.242Z,2.40
2022-09-12T11:36:31.471Z,2.40
2022-09-12T11:37:31.729Z,2.30
2022-09-12T11:38:32.062Z,2.50
2022-09-12T11:39:32.242Z,2.40
2022-09-12T11:40:32.677Z,2.40
2022-09-12T11:41:32.985Z,2.40
2022-09-12T11:42:33.244Z,2.40
2022-09-12T11:43:33.439Z,2.40
2022-09-12T11:44:33.843Z,2.40
2022-09-12T11:45:34.083Z,2.40
2022-09-12T11:46:34.351Z,2.40
2022-09-12T11:47:34.595Z,2.80
2022-09-12T11:48:34.919Z,2.80
2022-09-12T11:49:35.859Z,3.10
2022-09-12T11:50:35.338Z,3.00
2022-09-12T11:51:35.580Z,2.50
2022-09-12T11:52:35.865Z,2.30
2022-09-12T11:53:36.194Z,2.30
2022-09-12T11:54:36.409Z,2.40
2022-09-12T11:55:36.663Z,2.10
2022-09-12T11:56:36.897Z,2.10
2022-09-12T11:57:37.163Z,2.00
2022-09-12T11:58:37.392Z,2.30
2022-09-12T11:59:37.920Z,2.10
2022-09-12T12:00:38.006Z,2.20
2022-09-12T12:01:42.911Z,2.00
2022-09-12T12:02:39.590Z,2.10
2022-09-12T12:03:38.835Z,2.30
2022-09-12T12:04:39.203Z,2.10
2022-09-12T12:05:39.745Z,2.00
2022-09-12T12:06:39.673Z,2.00
2022-09-12T12:07:43.403Z,2.00
2022-09-12T12:08:41.273Z,2.70
2022-09-12T12:09:40.435Z,2.20
2022-09-12T12:10:41.139Z,2.80
2022-09-12T12:11:41.106Z,2.60
2022-09-12T12:12:41.176Z,2.50
2022-09-12T12:13:41.461Z,2.50
2022-09-12T12:14:41.736Z,2.40
2022-09-12T12:15:42.033Z,2.40
2022-09-12T12:16:42.272Z,2.50
2022-09-12T12:17:42.606Z,2.30
2022-09-12T12:18:42.901Z,2.40
2022-09-12T12:19:43.128Z,2.20
2022-09-12T12:20:43.373Z,2.80
2022-09-12T12:21:43.600Z,3.70
2022-09-12T12:22:43.915Z,2.20
2022-09-12T12:23:44.123Z,2.40
2022-09-12T12:24:45.632Z,3.00
2022-09-12T12:25:44.791Z,2.60
2022-09-12T12:26:45.053Z,2.40
2022-09-12T12:27:45.298Z,2.70
2022-09-12T12:28:45.641Z,3.70
2022-09-12T12:29:45.980Z,2.30
2022-09-12T12:30:46.197Z,2.30
2022-09-12T12:31:46.411Z,2.10
2022-09-12T12:32:46.699Z,2.00
2022-09-12T12:33:47.421Z,2.30
2022-09-12T12:34:47.227Z,2.20
2022-09-12T12:35:47.455Z,2.30
2022-09-12T12:36:47.789Z,2.10
2022-09-12T12:37:48.148Z,2.20
2022-09-12T12:38:48.721Z,2.00
2022-09-12T12:39:48.732Z,2.10
2022-09-12T12:40:49.187Z,2.10
2022-09-12T12:41:49.258Z,2.30
2022-09-12T12:42:49.589Z,2.20
2022-09-12T12:43:49.819Z,2.20
2022-09-12T12:44:50.033Z,2.00
2022-09-12T12:45:50.342Z,3.10
2022-09-12T12:46:50.631Z,2.60
2022-09-12T12:47:50.837Z,2.40
2022-09-12T12:48:51.082Z,2.70
2022-09-12T12:49:51.365Z,2.50
2022-09-12T12:50:51.620Z,2.10
2022-09-12T12:51:51.929Z,2.10
2022-09-12T12:52:52.196Z,2.30
2022-09-12T12:53:52.442Z,2.10
2022-09-12T12:54:52.737Z,2.10
2022-09-12T12:55:52.985Z,2.10
2022-09-12T12:56:53.181Z,2.40
2022-09-12T12:57:53.406Z,1.90
2022-09-12T12:58:53.813Z,2.00
2022-09-12T12:59:54.061Z,2.00
2022-09-12T13:00:54.392Z,2.00
2022-09-12T13:01:55.447Z,2.00
2022-09-12T13:02:54.839Z,2.00
2022-09-12T13:03:55.205Z,2.80